Time;durP1;ratioP1;P1;durP2;ratioP2;P2;SDS_P1;SDS_P2;PMS_P1;PMS_P2;Temp;Humidity;BMP_temperature;BMP_pressure;BME280_temperature;BME280_humidity;BME280_pressure;Samples;Min_cycle;Max_cycle;Signal;HPM_P1;HPM_P2
2021/07/26 00:01:05;;;;;;;11.60;5.50;;;;;;;20.87;100.00;100504.53;5093263;28;20810;-71
2021/07/26 00:03:31;;;;;;;8.47;5.57;;;;;;;20.86;100.00;100503.75;5092934;28;20986;-71
2021/07/26 00:05:59;;;;;;;12.00;6.27;;;;;;;20.89;100.00;100503.00;5093259;28;20444;-71
2021/07/26 00:08:25;;;;;;;10.50;5.63;;;;;;;20.91;100.00;100494.38;5093158;28;20440;-71
2021/07/26 00:10:59;;;;;;;9.07;6.07;;;;;;;20.93;100.00;100497.53;5093148;28;20448;-71
2021/07/26 00:13:27;;;;;;;8.93;6.63;;;;;;;20.92;100.00;100496.72;5092802;28;20451;-71
2021/07/26 00:15:54;;;;;;;10.17;6.53;;;;;;;20.96;100.00;100494.03;5093149;28;20444;-71
2021/07/26 00:18:20;;;;;;;12.13;7.83;;;;;;;20.94;100.00;100493.63;5092997;28;20480;-71
2021/07/26 00:20:47;;;;;;;14.03;7.50;;;;;;;20.97;100.00;100498.38;5093027;28;20529;-71
2021/07/26 00:23:13;;;;;;;11.63;6.93;;;;;;;20.99;100.00;100496.06;5093096;28;20494;-71
2021/07/26 00:25:40;;;;;;;10.40;6.17;;;;;;;20.98;100.00;100488.13;5092747;28;20808;-71
2021/07/26 00:28:07;;;;;;;12.20;6.50;;;;;;;21.01;100.00;100493.69;5093056;28;20436;-71
2021/07/26 00:30:36;;;;;;;9.97;6.30;;;;;;;21.02;100.00;100488.97;5093018;28;20440;-71
2021/07/26 00:33:02;;;;;;;10.50;6.83;;;;;;;21.02;100.00;100487.03;5092957;28;20448;-71
2021/07/26 00:35:28;;;;;;;11.00;6.57;;;;;;;21.04;100.00;100479.19;5092950;28;20448;-71
2021/07/26 00:37:55;;;;;;;8.77;6.27;;;;;;;21.04;100.00;100470.13;5092855;28;20479;-71
2021/07/26 00:40:24;;;;;;;7.07;4.67;;;;;;;21.04;100.00;100476.44;5092881;28;20468;-71
2021/07/26 00:42:51;;;;;;;10.90;5.50;;;;;;;21.04;100.00;100483.91;5086208;28;20460;-71
2021/07/26 00:45:17;;;;;;;12.00;6.97;;;;;;;21.06;100.00;100481.56;5076410;28;20441;-71
2021/07/26 00:47:45;;;;;;;10.53;6.00;;;;;;;21.06;100.00;100484.31;5076294;28;20800;-71
2021/07/26 00:50:12;;;;;;;8.63;5.73;;;;;;;21.07;100.00;100486.72;5076278;28;20468;-71
2021/07/26 00:52:39;;;;;;;10.63;6.80;;;;;;;21.07;100.00;100496.91;5076253;28;20446;-72
2021/07/26 00:55:07;;;;;;;11.97;7.17;;;;;;;21.07;100.00;100494.97;5075890;28;20934;-72
2021/07/26 00:57:34;;;;;;;10.90;6.80;;;;;;;21.06;100.00;100489.81;5076076;28;20481;-71
2021/07/26 01:00:03;;;;;;;13.67;6.63;;;;;;;21.05;100.00;100497.28;5076100;28;20885;-71
2021/07/26 01:02:29;;;;;;;9.90;6.30;;;;;;;21.03;100.00;100499.66;5076071;28;20444;-72
2021/07/26 01:04:57;;;;;;;8.83;5.77;;;;;;;21.03;100.00;100496.88;5075952;28;20507;-71
2021/07/26 01:07:24;;;;;;;22.00;6.40;;;;;;;21.04;100.00;100500.44;5076037;28;20511;-71
2021/07/26 01:09:50;;;;;;;17.73;7.80;;;;;;;21.04;100.00;100508.69;5075877;28;20476;-72
2021/07/26 01:12:16;;;;;;;9.63;5.93;;;;;;;21.02;100.00;100497.25;5075955;28;20449;-72
2021/07/26 01:14:43;;;;;;;9.63;5.07;;;;;;;21.01;100.00;100507.47;5075875;28;20453;-71
2021/07/26 01:17:11;;;;;;;9.77;5.33;;;;;;;20.99;100.00;100501.56;5075522;28;20800;-72
2021/07/26 01:19:38;;;;;;;13.00;7.17;;;;;;;20.99;100.00;100498.00;5075621;28;20491;-71
2021/07/26 01:22:05;;;;;;;8.40;5.63;;;;;;;20.95;100.00;100500.72;5075748;28;20448;-72
2021/07/26 01:24:32;;;;;;;8.87;5.47;;;;;;;20.93;100.00;100503.03;5075643;28;20437;-72
2021/07/26 01:26:58;;;;;;;11.20;6.60;;;;;;;20.95;100.00;100497.16;5075658;28;20452;-72
2021/07/26 01:29:25;;;;;;;13.17;5.90;;;;;;;20.96;100.00;100501.50;5076879;28;20465;-72
2021/07/26 01:31:52;;;;;;;9.50;5.60;;;;;;;20.96;100.00;100494.03;5075270;28;20548;-72
2021/07/26 01:34:18;;;;;;;7.30;5.53;;;;;;;20.94;100.00;100503.81;5075586;28;20483;-72
2021/07/26 01:36:45;;;;;;;15.13;6.87;;;;;;;20.94;100.00;100498.31;5075483;28;20449;-71
2021/07/26 01:39:12;;;;;;;11.37;6.07;;;;;;;20.94;100.00;100503.81;5075337;28;20484;-71
2021/07/26 01:41:39;;;;;;;9.30;5.63;;;;;;;20.91;100.00;100499.88;5075394;28;20442;-72
2021/07/26 01:44:10;;;;;;;11.43;6.03;;;;;;;20.90;100.00;100499.09;5075435;28;20441;-72
2021/07/26 01:47:03;;;;;;;9.20;5.40;;;;;;;20.88;100.00;100501.41;5075429;28;20453;-72
2021/07/26 01:49:44;;;;;;;9.37;6.57;;;;;;;20.89;100.00;100511.28;5075006;28;20461;-72
2021/07/26 01:52:13;;;;;;;11.80;5.77;;;;;;;20.87;100.00;100513.59;5075493;28;20437;-73
2021/07/26 01:54:41;;;;;;;11.67;6.43;;;;;;;20.85;100.00;100510.44;5075035;28;20490;-72
2021/07/26 01:57:08;;;;;;;9.97;6.47;;;;;;;20.86;100.00;100509.25;5074691;28;20489;-72
2021/07/26 01:59:35;;;;;;;10.47;5.50;;;;;;;20.84;100.00;100513.53;5074873;28;20493;-72
2021/07/26 02:02:01;;;;;;;11.13;6.20;;;;;;;20.81;100.00;100512.34;5074978;28;20452;-72
2021/07/26 02:04:28;;;;;;;10.80;6.90;;;;;;;20.79;100.00;100528.41;5074967;28;20441;-72
2021/07/26 02:06:54;;;;;;;10.00;6.97;;;;;;;20.78;100.00;100518.56;5074566;28;20942;-72
2021/07/26 02:09:21;;;;;;;8.80;5.03;;;;;;;20.76;100.00;100520.91;5074814;28;20461;-72
2021/07/26 02:11:48;;;;;;;11.83;5.70;;;;;;;20.75;100.00;100519.31;5088281;28;20460;-72
2021/07/26 02:14:15;;;;;;;9.93;5.90;;;;;;;20.74;100.00;100523.22;5094868;28;20437;-72
2021/07/26 02:16:42;;;;;;;11.67;6.10;;;;;;;20.72;100.00;100517.31;5094789;28;20448;-72
2021/07/26 02:19:09;;;;;;;8.90;5.70;;;;;;;20.71;100.00;100512.16;5094764;28;20480;-72
2021/07/26 02:21:36;;;;;;;7.37;5.67;;;;;;;20.69;100.00;100509.00;5094788;28;20452;-72
2021/07/26 02:24:02;;;;;;;8.20;4.93;;;;;;;20.66;100.00;100507.78;5094825;28;20494;-72
2021/07/26 02:26:29;;;;;;;8.20;5.63;;;;;;;20.64;100.00;100505.41;5094796;28;20452;-72
2021/07/26 02:28:57;;;;;;;11.97;6.77;;;;;;;20.65;100.00;100503.44;5094376;28;20869;-71
2021/07/26 02:31:23;;;;;;;9.20;5.93;;;;;;;20.63;100.00;100501.06;5094385;28;20976;-71
2021/07/26 02:33:49;;;;;;;11.13;5.90;;;;;;;20.65;100.00;100495.19;5094621;28;20443;-71
2021/07/26 02:36:16;;;;;;;8.60;5.97;;;;;;;20.65;100.00;100495.19;5094597;28;20447;-71
2021/07/26 02:38:42;;;;;;;10.37;5.70;;;;;;;20.64;100.00;100497.16;5094361;28;20546;-71
2021/07/26 02:41:10;;;;;;;7.57;5.70;;;;;;;20.62;100.00;100493.94;5094141;28;20961;-71
2021/07/26 02:43:36;;;;;;;12.83;6.50;;;;;;;20.62;100.00;100495.91;5094405;28;20452;-71
2021/07/26 02:46:06;;;;;;;11.50;5.77;;;;;;;20.62;100.00;100499.47;5094404;28;20447;-72
2021/07/26 02:48:32;;;;;;;10.60;6.10;;;;;;;20.61;100.00;100491.59;5094010;28;20973;-71
2021/07/26 02:50:58;;;;;;;8.40;5.33;;;;;;;20.61;100.00;100489.63;5094269;28;20436;-72
2021/07/26 02:53:25;;;;;;;9.30;5.73;;;;;;;20.61;100.00;100486.06;5094283;28;20439;-71
2021/07/26 02:55:51;;;;;;;8.73;5.77;;;;;;;20.58;100.00;100481.31;5093789;28;20440;-71
2021/07/26 02:58:20;;;;;;;7.80;5.23;;;;;;;20.60;100.00;100484.50;5094126;28;20465;-71
2021/07/26 03:00:47;;;;;;;9.70;5.40;;;;;;;20.59;100.00;100488.41;5094135;28;20494;-71
2021/07/26 03:03:14;;;;;;;9.97;5.80;;;;;;;20.58;100.00;100484.06;5094084;28;20443;-71
2021/07/26 03:05:41;;;;;;;11.63;5.53;;;;;;;20.58;100.00;100492.31;5093540;28;20462;-71
2021/07/26 03:08:07;;;;;;;7.83;5.50;;;;;;;20.56;100.00;100494.66;5093696;28;20941;-71
2021/07/26 03:10:34;;;;;;;13.10;6.13;;;;;;;20.55;100.00;100498.59;5093672;28;20841;-71
2021/07/26 03:13:01;;;;;;;10.87;6.30;;;;;;;20.54;100.00;100506.06;5093903;28;20448;-71
2021/07/26 03:15:27;;;;;;;9.47;5.67;;;;;;;20.54;100.00;100513.47;5100033;28;20444;-72
2021/07/26 03:17:53;;;;;;;11.50;6.53;;;;;;;20.54;100.00;100514.31;5093898;28;20440;-72
2021/07/26 03:20:21;;;;;;;9.03;5.70;;;;;;;20.54;100.00;100513.47;5093451;28;20999;-71
2021/07/26 03:22:59;;;;;;;14.03;6.53;;;;;;;20.53;100.00;100518.19;5093822;28;20463;-72
2021/07/26 03:25:26;;;;;;;11.90;5.90;;;;;;;20.57;100.00;100521.00;5093777;28;20492;-72
2021/07/26 03:27:53;;;;;;;8.00;5.53;;;;;;;20.55;100.00;100521.38;5093675;28;20444;-72
2021/07/26 03:30:21;;;;;;;10.47;5.30;;;;;;;20.56;100.00;100516.69;5093601;28;20456;-72
2021/07/26 03:32:47;;;;;;;11.20;7.43;;;;;;;20.56;100.00;100522.19;5093627;28;20436;-72
2021/07/26 03:35:15;;;;;;;8.70;6.30;;;;;;;20.57;100.00;100524.56;5093264;28;20837;-72
2021/07/26 03:37:43;;;;;;;13.10;6.27;;;;;;;20.58;100.00;100530.84;5092781;28;20548;-71
2021/07/26 03:40:10;;;;;;;10.20;5.80;;;;;;;20.59;100.00;100543.47;5093378;28;20514;-72
2021/07/26 03:42:37;;;;;;;9.77;6.50;;;;;;;20.61;100.00;100538.38;5093354;28;20444;-72
2021/07/26 03:45:06;;;;;;;11.10;6.10;;;;;;;20.62;100.00;100531.69;5093152;28;20945;-72
2021/07/26 03:47:32;;;;;;;9.13;5.07;;;;;;;20.62;100.00;100526.97;5093380;28;20443;-72
2021/07/26 03:49:59;;;;;;;11.07;6.33;;;;;;;20.64;100.00;100523.88;5093319;28;20517;-72
2021/07/26 03:52:25;;;;;;;14.40;5.90;;;;;;;20.64;100.00;100524.66;5093404;28;20821;-71
2021/07/26 03:54:55;;;;;;;9.13;6.10;;;;;;;20.64;100.00;100530.19;5093002;28;20975;-72
2021/07/26 03:57:22;;;;;;;13.07;6.77;;;;;;;20.67;100.00;100525.88;5092957;28;20554;-72
2021/07/26 03:59:48;;;;;;;9.03;5.80;;;;;;;20.69;100.00;100537.31;5093116;28;20484;-72
2021/07/26 04:02:14;;;;;;;9.87;5.87;;;;;;;20.69;100.00;100531.81;5093256;28;20440;-72
2021/07/26 04:04:41;;;;;;;8.07;5.77;;;;;;;20.71;100.00;100529.47;5092904;28;20451;-73
2021/07/26 04:07:13;;;;;;;10.53;6.20;;;;;;;20.73;100.00;100531.88;5093364;28;20452;-70
2021/07/26 04:09:43;;;;;;;10.77;6.27;;;;;;;20.74;100.00;100527.94;5093196;28;20938;-71
2021/07/26 04:12:15;;;;;;;9.47;5.50;;;;;;;20.74;100.00;100530.69;5093167;28;20447;-71
2021/07/26 04:14:42;;;;;;;8.90;6.00;;;;;;;20.78;100.00;100537.06;5093180;28;20494;-72
2021/07/26 04:17:08;;;;;;;8.97;5.80;;;;;;;20.81;100.00;100536.31;5093151;28;20448;-71
2021/07/26 04:19:35;;;;;;;9.83;6.50;;;;;;;20.83;100.00;100539.47;5096496;28;20496;-71
2021/07/26 04:22:01;;;;;;;9.17;5.53;;;;;;;20.86;100.00;100534.03;5080541;28;20464;-72
2021/07/26 04:24:28;;;;;;;11.47;7.13;;;;;;;20.90;100.00;100532.13;5076887;28;20467;-71
2021/07/26 04:26:54;;;;;;;10.80;6.80;;;;;;;20.92;100.00;100535.28;5076778;28;20448;-73
2021/07/26 04:29:22;;;;;;;14.73;6.40;;;;;;;20.97;100.00;100530.63;5076717;28;20453;-71
2021/07/26 04:31:49;;;;;;;8.27;5.43;;;;;;;20.99;100.00;100533.81;5076752;28;20452;-71
2021/07/26 04:34:15;;;;;;;11.70;6.90;;;;;;;21.04;100.00;100539.00;5076656;28;20839;-71
2021/07/26 04:36:42;;;;;;;12.07;7.17;;;;;;;21.07;100.00;100547.31;5076566;28;20441;-71
2021/07/26 04:39:08;;;;;;;10.73;6.30;;;;;;;21.10;100.00;100548.50;5076485;28;20480;-70
2021/07/26 04:41:36;;;;;;;10.87;6.70;;;;;;;21.13;100.00;100550.53;5076464;28;20445;-70
2021/07/26 04:44:03;;;;;;;15.03;8.63;;;;;;;21.15;100.00;100553.69;5076464;28;20499;-70
2021/07/26 04:46:30;;;;;;;16.03;8.33;;;;;;;21.18;100.00;100547.44;5076378;28;20445;-70
2021/07/26 04:48:57;;;;;;;15.23;8.23;;;;;;;21.17;100.00;100541.13;5076340;28;20460;-70
2021/07/26 04:51:23;;;;;;;18.27;10.17;;;;;;;21.20;100.00;100534.06;5075991;28;20818;-70
2021/07/26 04:53:50;;;;;;;13.53;8.50;;;;;;;21.21;100.00;100534.88;5076266;28;20445;-70
2021/07/26 04:56:16;;;;;;;14.70;8.60;;;;;;;21.25;100.00;100543.97;5075946;28;20457;-70
2021/07/26 04:58:42;;;;;;;12.10;7.30;;;;;;;21.27;100.00;100539.69;5075726;28;20966;-70
2021/07/26 05:01:09;;;;;;;13.40;8.40;;;;;;;21.29;100.00;100534.56;5076134;28;20441;-69
2021/07/26 05:03:37;;;;;;;13.60;7.90;;;;;;;21.34;100.00;100545.31;5076149;28;20441;-70
2021/07/26 05:06:06;;;;;;;14.13;7.83;;;;;;;21.38;100.00;100545.34;5076263;28;20477;-70
2021/07/26 05:08:32;;;;;;;14.87;9.30;;;;;;;21.40;100.00;100537.50;5075988;28;20464;-69
2021/07/26 05:10:58;;;;;;;14.50;8.33;;;;;;;21.45;100.00;100544.66;5075777;28;20938;-69
2021/07/26 05:13:25;;;;;;;11.10;7.33;;;;;;;21.47;100.00;100545.06;5081046;28;20452;-70
2021/07/26 05:15:51;;;;;;;15.43;8.87;;;;;;;21.48;100.00;100546.66;5078876;28;20433;-71
2021/07/26 05:18:18;;;;;;;15.57;8.47;;;;;;;21.48;100.00;100535.63;5075707;28;20478;-71
2021/07/26 05:20:46;;;;;;;9.60;6.47;;;;;;;21.51;100.00;100532.09;5075730;28;20485;-71
2021/07/26 05:23:12;;;;;;;15.13;8.13;;;;;;;21.53;100.00;100527.03;5075402;28;20448;-70
2021/07/26 05:25:42;;;;;;;13.20;8.43;;;;;;;21.55;100.00;100528.22;5075723;28;20552;-71
2021/07/26 05:28:09;;;;;;;15.30;8.77;;;;;;;21.61;100.00;100520.44;5075648;28;20430;-70
2021/07/26 05:30:35;;;;;;;12.77;8.27;;;;;;;21.63;100.00;100521.63;5075203;28;20444;-70
2021/07/26 05:33:02;;;;;;;12.33;8.07;;;;;;;21.67;100.00;100529.94;5075637;28;20445;-70
2021/07/26 05:35:28;;;;;;;12.20;7.50;;;;;;;21.71;100.00;100524.47;5075532;28;20445;-70
2021/07/26 05:37:56;;;;;;;12.07;7.27;;;;;;;21.76;100.00;100540.66;5075182;28;20913;-71
2021/07/26 05:40:22;;;;;;;11.00;7.67;;;;;;;21.78;100.00;100528.09;5075320;28;20485;-70
2021/07/26 05:42:49;;;;;;;15.27;8.33;;;;;;;21.79;100.00;100537.94;5075433;28;20450;-70
2021/07/26 05:45:16;;;;;;;17.43;8.43;;;;;;;21.81;100.00;100543.88;5075332;28;20441;-70
2021/07/26 05:47:42;;;;;;;12.80;7.97;;;;;;;21.82;100.00;100542.69;5075048;28;20820;-70
2021/07/26 05:50:09;;;;;;;14.40;8.07;;;;;;;21.81;100.00;100530.06;5075246;28;20902;-70
2021/07/26 05:52:36;;;;;;;12.90;8.70;;;;;;;21.79;100.00;100532.44;5075197;28;20457;-70
2021/07/26 05:55:04;;;;;;;8.30;5.90;;;;;;;21.79;100.00;100532.44;5074858;28;20437;-70
2021/07/26 05:57:35;;;;;;;15.63;7.63;;;;;;;21.81;100.00;100526.53;5074813;28;20449;-70
2021/07/26 06:00:08;;;;;;;11.07;6.80;;;;;;;21.86;100.00;100526.97;5074658;28;21072;-69
2021/07/26 06:02:34;;;;;;;12.33;7.53;;;;;;;21.88;100.00;100534.88;5074782;28;20414;-69
2021/07/26 06:05:01;;;;;;;10.90;7.50;;;;;;;21.91;100.00;100534.91;5074991;28;20623;-70
2021/07/26 06:07:27;;;;;;;11.17;7.00;;;;;;;21.96;100.00;100532.97;5074712;28;20930;-69
2021/07/26 06:09:54;;;;;;;15.70;8.33;;;;;;;21.97;100.00;100531.81;5074757;28;20460;-69
2021/07/26 06:12:23;;;;;;;10.97;6.23;;;;;;;21.96;100.00;100538.47;5074807;28;20454;-69
2021/07/26 06:14:49;;;;;;;14.03;7.77;;;;;;;21.97;100.00;100537.34;5074819;28;20446;-69
2021/07/26 06:17:17;;;;;;;11.57;7.63;;;;;;;22.02;100.00;100550.78;5074711;28;20499;-70
2021/07/26 06:19:43;;;;;;;17.47;7.90;;;;;;;22.02;100.00;100539.75;5074507;28;20489;-69
2021/07/26 06:22:09;;;;;;;13.30;8.70;;;;;;;22.00;100.00;100531.84;5074610;28;20444;-69
2021/07/26 06:24:36;;;;;;;14.03;7.53;;;;;;;22.00;100.00;100542.06;5074553;28;20441;-69
2021/07/26 06:27:03;;;;;;;13.00;8.23;;;;;;;22.00;100.00;100536.56;5074553;28;20511;-70
2021/07/26 06:29:30;;;;;;;12.17;6.83;;;;;;;22.05;100.00;100548.06;5074343;28;20453;-69
2021/07/26 06:31:57;;;;;;;12.33;5.90;;;;;;;22.10;100.00;100544.16;5074145;28;20935;-70
2021/07/26 06:34:24;;;;;;;9.90;5.93;;;;;;;22.13;100.00;100543.41;5074389;28;20507;-69
2021/07/26 06:36:50;;;;;;;13.40;7.30;;;;;;;22.20;100.00;100551.75;5074260;28;20798;-70
2021/07/26 06:39:17;;;;;;;15.00;8.63;;;;;;;22.27;100.00;100543.53;5074063;28;20461;-70
2021/07/26 06:41:43;;;;;;;12.07;7.30;;;;;;;22.35;100.00;100550.69;5073380;28;20433;-70
2021/07/26 06:44:10;;;;;;;12.20;6.10;;;;;;;22.41;100.00;100540.09;5074214;28;20442;-70
2021/07/26 06:46:40;;;;;;;10.90;6.60;;;;;;;22.45;100.00;100546.44;5074058;28;20441;-70
2021/07/26 06:49:07;;;;;;;10.87;7.20;;;;;;;22.51;100.00;100542.16;5074095;28;20476;-70
2021/07/26 06:51:33;;;;;;;12.40;7.10;;;;;;;22.57;100.00;100551.66;5074044;28;20449;-69
2021/07/26 06:54:00;;;;;;;12.90;7.10;;;;;;;22.64;100.00;100537.91;5074014;28;20445;-69
2021/07/26 06:56:26;;;;;;;8.90;6.07;;;;;;;22.75;100.00;100548.22;5073703;28;20856;-69
2021/07/26 06:58:52;;;;;;;9.20;6.03;;;;;;;22.85;100.00;100537.25;5073816;28;20469;-71
2021/07/26 07:01:19;;;;;;;10.80;5.97;;;;;;;22.93;100.00;100546.38;5073819;28;20488;-71
2021/07/26 07:03:47;;;;;;;8.33;6.03;;;;;;;23.02;100.00;100546.03;5073919;28;20512;-70
2021/07/26 07:06:15;;;;;;;9.30;6.40;;;;;;;23.09;100.00;100552.41;5073435;28;20965;-71
2021/07/26 07:08:42;;;;;;;11.90;6.90;;;;;;;23.14;100.00;100548.47;5073716;28;20469;-71
2021/07/26 07:11:10;;;;;;;9.17;5.83;;;;;;;23.18;100.00;100549.28;5073692;28;20452;-71
2021/07/26 07:13:38;;;;;;;10.40;5.90;;;;;;;23.18;100.00;100549.28;5078815;28;20428;-69
2021/07/26 07:16:08;;;;;;;13.27;7.03;;;;;;;23.21;100.00;100554.03;5075300;28;20475;-71
2021/07/26 07:18:35;;;;;;;8.20;6.47;;;;;;;23.28;100.00;100559.59;5073200;28;20825;-71
2021/07/26 07:21:03;;;;;;;7.77;5.33;;;;;;;23.40;100.00;100570.31;5073475;28;20952;-71
2021/07/26 07:23:29;;;;;;;9.80;5.57;;;;;;;23.45;100.00;100566.38;5073497;28;20449;-72
2021/07/26 07:25:56;;;;;;;8.67;5.13;;;;;;;23.50;100.00;100565.22;5073534;28;20449;-71
2021/07/26 07:28:22;;;;;;;12.43;7.17;;;;;;;23.53;100.00;100565.22;5073111;28;20441;-71
2021/07/26 07:30:48;;;;;;;14.57;5.70;;;;;;;23.56;100.00;100563.66;5074894;28;20441;-71
2021/07/26 07:33:15;;;;;;;8.13;5.57;;;;;;;23.57;100.00;100565.25;5073417;28;20440;-72
2021/07/26 07:35:41;;;;;;;8.30;6.00;;;;;;;23.59;100.00;100568.41;5090910;28;20468;-72
2021/07/26 07:38:09;;;;;;;9.53;6.10;;;;;;;23.67;100.00;100584.66;5093587;28;20459;-72
2021/07/26 07:40:37;;;;;;;8.50;5.10;;;;;;;23.74;99.71;100572.84;5093428;28;20497;-72
2021/07/26 07:43:04;;;;;;;9.60;5.40;;;;;;;23.80;97.42;100579.56;5076751;28;20461;-72
2021/07/26 07:45:31;;;;;;;9.83;4.23;;;;;;;23.79;93.78;100574.44;5072849;28;20957;-72
2021/07/26 07:47:58;;;;;;;7.43;5.00;;;;;;;23.88;91.68;100575.63;5073310;28;20492;-72
2021/07/26 07:50:24;;;;;;;11.10;5.87;;;;;;;23.99;91.13;100581.19;5073050;28;20515;-72
2021/07/26 07:52:53;;;;;;;8.87;5.00;;;;;;;24.06;92.06;100575.66;5072974;28;20449;-73
2021/07/26 07:55:21;;;;;;;6.47;4.10;;;;;;;24.07;94.50;100573.69;5073184;28;20444;-72
2021/07/26 07:57:51;;;;;;;8.43;4.97;;;;;;;24.06;97.01;100581.19;5072725;28;20457;-73
2021/07/26 08:00:20;;;;;;;10.03;5.50;;;;;;;24.04;97.50;100588.28;5073018;28;20496;-72
2021/07/26 08:02:46;;;;;;;9.10;5.83;;;;;;;23.99;98.33;100583.94;5073070;28;20469;-72
2021/07/26 08:05:14;;;;;;;8.07;4.80;;;;;;;24.01;99.07;100584.34;5072952;28;20946;-72
2021/07/26 08:07:41;;;;;;;8.73;5.07;;;;;;;24.02;95.32;100588.69;5073113;28;20449;-72
2021/07/26 08:10:08;;;;;;;11.57;6.10;;;;;;;24.16;94.27;100585.16;5072947;28;20464;-72
2021/07/26 08:12:36;;;;;;;9.87;6.40;;;;;;;24.28;93.20;100584.00;5073002;28;20462;-72
2021/07/26 08:15:03;;;;;;;7.57;5.67;;;;;;;24.42;95.46;100582.03;5077704;28;20448;-72
2021/07/26 08:17:30;;;;;;;12.90;7.90;;;;;;;24.52;96.38;100590.75;5093137;28;20447;-72
2021/07/26 08:19:57;;;;;;;10.23;6.03;;;;;;;24.56;96.98;100586.78;5093000;28;20924;-73
2021/07/26 08:22:23;;;;;;;8.40;5.53;;;;;;;24.54;97.25;100578.09;5093189;28;20814;-72
2021/07/26 08:24:49;;;;;;;10.37;7.57;;;;;;;24.51;95.47;100594.72;5092937;28;20987;-72
2021/07/26 08:27:16;;;;;;;9.87;6.17;;;;;;;24.51;96.62;100597.47;5093339;28;20447;-72
2021/07/26 08:29:44;;;;;;;7.80;5.47;;;;;;;24.48;96.56;100592.72;5093091;28;20517;-71
2021/07/26 08:32:10;;;;;;;9.23;5.70;;;;;;;24.44;96.65;100594.69;5092795;28;20960;-72
2021/07/26 08:34:37;;;;;;;9.53;4.97;;;;;;;24.33;95.19;100600.22;5093231;28;20440;-72
2021/07/26 08:37:04;;;;;;;8.37;5.80;;;;;;;24.31;93.54;100603.38;5092991;28;20444;-71
2021/07/26 08:39:31;;;;;;;8.07;4.77;;;;;;;24.26;93.20;100601.00;5093147;28;20496;-72
2021/07/26 08:41:57;;;;;;;6.87;4.90;;;;;;;24.35;93.76;100606.16;5092983;28;20511;-72
2021/07/26 08:44:24;;;;;;;9.43;5.77;;;;;;;24.49;93.26;100599.88;5093024;28;20448;-73
2021/07/26 08:46:53;;;;;;;5.13;4.63;;;;;;;24.70;92.34;100602.59;5074716;28;20860;-72
2021/07/26 08:49:21;;;;;;;10.60;5.00;;;;;;;24.86;92.50;100594.69;5092626;28;21175;-72
2021/07/26 08:51:50;;;;;;;9.20;5.03;;;;;;;24.96;92.50;100600.59;5093028;28;20815;-73
2021/07/26 08:54:16;;;;;;;11.40;5.70;;;;;;;25.12;91.31;100587.91;5092771;28;20471;-72
2021/07/26 08:56:43;;;;;;;7.53;4.57;;;;;;;25.22;90.99;100594.63;5092530;28;20929;-72
2021/07/26 08:59:10;;;;;;;9.73;5.30;;;;;;;25.33;89.83;100592.63;5092682;28;20456;-72
2021/07/26 09:01:38;;;;;;;8.67;5.27;;;;;;;25.44;84.27;100600.09;5092631;28;20487;-72
2021/07/26 09:04:06;;;;;;;7.10;5.00;;;;;;;25.59;85.40;100598.84;5093641;28;20455;-72
2021/07/26 09:06:32;;;;;;;6.80;4.90;;;;;;;25.69;84.06;100597.22;5096048;28;20798;-72
2021/07/26 09:08:59;;;;;;;7.67;4.60;;;;;;;25.78;84.54;100592.84;5096286;28;20460;-72
2021/07/26 09:11:26;;;;;;;6.33;4.47;;;;;;;25.81;80.72;100594.81;5096300;28;20436;-72
2021/07/26 09:13:52;;;;;;;6.67;4.73;;;;;;;25.93;82.50;100593.53;5096209;28;20436;-72
2021/07/26 09:16:20;;;;;;;6.83;4.77;;;;;;;25.96;82.61;100592.72;5102898;28;20439;-73
2021/07/26 09:19:00;;;;;;;8.80;3.93;;;;;;;26.00;84.31;100595.50;5095812;28;20464;-73
2021/07/26 09:21:48;;;;;;;6.73;4.20;;;;;;;25.98;83.94;100592.31;5096091;28;20552;-72
2021/07/26 09:24:14;;;;;;;6.97;4.50;;;;;;;25.86;82.99;100588.84;5096071;28;20421;-72
2021/07/26 09:26:41;;;;;;;6.37;4.83;;;;;;;25.83;80.88;100602.72;5096131;28;20448;-72
2021/07/26 09:29:26;;;;;;;7.50;4.87;;;;;;;25.77;84.94;100602.38;5095865;28;20465;-72
2021/07/26 09:31:57;;;;;;;11.40;4.57;;;;;;;25.71;86.11;100608.69;5095944;28;20456;-72
2021/07/26 09:34:23;;;;;;;6.63;5.00;;;;;;;25.70;86.88;100605.13;5095838;28;20505;-72
2021/07/26 09:36:51;;;;;;;5.50;4.20;;;;;;;25.69;86.87;100606.34;5095814;28;20433;-72
2021/07/26 09:39:25;;;;;;;9.90;4.70;;;;;;;25.70;86.15;100605.13;5095658;28;20461;-72
2021/07/26 09:41:53;;;;;;;6.17;4.00;;;;;;;25.70;86.45;100599.59;5095376;28;20891;-72
2021/07/26 09:44:23;;;;;;;6.00;3.80;;;;;;;25.72;86.84;100597.22;5095663;28;20449;-72
2021/07/26 09:46:49;;;;;;;8.53;4.70;;;;;;;25.68;86.83;100590.88;5095376;28;20472;-72
2021/07/26 09:49:17;;;;;;;6.50;4.40;;;;;;;25.63;86.98;100594.88;5095521;28;20475;-72
2021/07/26 09:52:02;;;;;;;6.07;3.97;;;;;;;25.58;88.26;100594.47;5095413;28;20436;-72
2021/07/26 09:54:43;;;;;;;6.23;3.97;;;;;;;25.54;88.48;100593.72;5080811;28;20441;-72
2021/07/26 09:57:19;;;;;;;5.07;4.10;;;;;;;25.47;87.42;100599.31;5095040;28;20459;-72
2021/07/26 09:59:47;;;;;;;6.50;4.03;;;;;;;25.53;84.82;100604.00;5083862;28;20485;-72
2021/07/26 10:02:15;;;;;;;5.13;4.03;;;;;;;25.55;84.01;100598.09;5074724;28;20829;-71
2021/07/26 10:04:43;;;;;;;5.03;3.90;;;;;;;25.58;83.80;100600.81;5075201;28;20468;-72
2021/07/26 10:07:10;;;;;;;5.50;3.33;;;;;;;25.57;84.38;100607.56;5075417;28;20816;-72
2021/07/26 10:09:40;;;;;;;6.50;4.50;;;;;;;25.59;83.40;100599.66;5074556;28;20871;-71
2021/07/26 10:12:08;;;;;;;6.33;4.50;;;;;;;25.61;78.69;100604.78;5090940;28;20449;-72
2021/07/26 10:14:35;;;;;;;4.50;3.57;;;;;;;25.83;80.93;100603.50;5095120;28;20444;-72
2021/07/26 10:17:02;;;;;;;7.50;4.57;;;;;;;26.01;83.11;100602.63;5095201;28;20451;-72
2021/07/26 10:19:28;;;;;;;5.43;4.37;;;;;;;26.12;84.27;100597.81;5074905;28;20481;-72
2021/07/26 10:21:57;;;;;;;6.83;4.27;;;;;;;26.20;81.10;100596.53;5074675;28;20498;-72
2021/07/26 10:24:30;;;;;;;6.53;4.13;;;;;;;26.36;79.12;100601.59;5074727;28;20861;-72
2021/07/26 10:27:00;;;;;;;7.23;4.20;;;;;;;26.50;77.03;100603.47;5074687;28;20437;-72
2021/07/26 10:29:51;;;;;;;6.63;4.00;;;;;;;26.60;77.03;100599.81;5074123;28;21000;-72
2021/07/26 10:32:35;;;;;;;6.50;3.53;;;;;;;26.71;78.99;100592.19;5074818;28;20450;-72
2021/07/26 10:35:03;;;;;;;6.70;3.97;;;;;;;26.79;73.26;100593.69;5074387;28;20445;-72
2021/07/26 10:37:49;;;;;;;4.63;3.43;;;;;;;26.92;72.25;100586.41;5074488;28;20437;-72
2021/07/26 10:40:20;;;;;;;4.97;3.90;;;;;;;27.02;72.77;100595.06;5074765;28;20457;-72
2021/07/26 10:42:48;;;;;;;7.77;4.00;;;;;;;27.17;72.74;100588.16;5082165;28;20473;-72
2021/07/26 10:45:56;;;;;;;7.00;4.03;;;;;;;27.33;74.78;100587.59;5094889;28;20445;-73
2021/07/26 10:48:35;;;;;;;8.17;4.70;;;;;;;27.46;69.72;100582.25;5094294;28;20421;-72
2021/07/26 10:51:02;;;;;;;7.43;4.07;;;;;;;27.61;68.71;100578.06;5094589;28;20762;-72
2021/07/26 10:54:00;;;;;;;6.10;3.70;;;;;;;27.76;68.05;100570.34;5094445;28;20433;-73
2021/07/26 10:56:26;;;;;;;7.17;3.83;;;;;;;27.92;67.50;100570.50;5094004;28;20460;-72
2021/07/26 10:59:11;;;;;;;3.90;3.50;;;;;;;28.07;72.21;100566.31;5094179;28;20464;-73
2021/07/26 11:01:39;;;;;;;5.43;3.73;;;;;;;28.22;65.63;100580.03;5094295;28;20465;-73
2021/07/26 11:04:32;;;;;;;5.23;3.60;;;;;;;28.37;64.37;100573.03;5094095;28;20451;-73
2021/07/26 11:07:14;;;;;;;4.83;3.83;;;;;;;28.70;68.07;100562.91;5094400;28;20425;-73
2021/07/26 11:09:45;;;;;;;13.53;4.40;;;;;;;28.79;63.61;100574.28;5081003;28;20822;-73
2021/07/26 11:12:12;;;;;;;5.23;4.00;;;;;;;28.73;62.54;100570.41;5086967;28;20953;-72
2021/07/26 11:15:15;;;;;;;4.90;4.20;;;;;;;28.65;61.89;100568.97;5077719;28;20448;-70
2021/07/26 11:18:15;;;;;;;5.60;3.70;;;;;;;28.65;65.47;100558.59;5074049;28;20565;-72
2021/07/26 11:20:56;;;;;;;7.17;3.70;;;;;;;28.52;72.79;100565.22;5082019;28;20502;-73
2021/07/26 11:23:36;;;;;;;5.97;3.00;;;;;;;28.13;71.03;100563.84;5093947;28;20432;-74